Time;durP1;ratioP1;P1;durP2;ratioP2;P2;SDS_P1;SDS_P2;PMS_P1;PMS_P2;Temp;Humidity;BMP_temperature;BMP_pressure;BME280_temperature;BME280_humidity;BME280_pressure;Samples;Min_cycle;Max_cycle;Signal;HPM_P1;HPM_P2
2024/04/12 00:01:01;;;;;;;3.33;2.30;;;;;;;9.28;100.00;102587.16;5342606;26;20296;-71
2024/04/12 00:03:27;;;;;;;7.43;2.33;;;;;;;9.25;100.00;102594.78;5344234;26;20558;-71
2024/04/12 00:05:57;;;;;;;4.00;2.30;;;;;;;9.20;100.00;102590.31;5356390;26;20282;-70
2024/04/12 00:08:23;;;;;;;4.57;2.20;;;;;;;9.17;100.00;102590.06;5342448;26;20322;-70
2024/04/12 00:10:55;;;;;;;4.00;2.73;;;;;;;9.14;100.00;102586.13;5342723;26;20293;-71
2024/04/12 00:13:21;;;;;;;6.77;3.03;;;;;;;9.10;100.00;102585.06;5345495;26;20241;-71
2024/04/12 00:15:55;;;;;;;4.43;2.67;;;;;;;9.08;100.00;102578.47;5353990;26;20253;-70
2024/04/12 00:18:21;;;;;;;3.50;2.57;;;;;;;9.03;100.00;102576.66;5345996;26;20272;-71
2024/04/12 00:20:50;;;;;;;3.03;2.50;;;;;;;8.99;100.00;102580.06;5340745;26;20228;-71
2024/04/12 00:23:19;;;;;;;3.20;2.43;;;;;;;8.95;100.00;102579.81;5342763;26;20234;-71
2024/04/12 00:25:50;;;;;;;4.30;2.60;;;;;;;8.94;100.00;102580.06;5341668;26;20758;-70
2024/04/12 00:28:22;;;;;;;3.37;2.60;;;;;;;8.89;100.00;102574.81;5341906;26;20241;-70
2024/04/12 00:30:48;;;;;;;6.10;2.50;;;;;;;8.86;100.00;102572.72;5351748;26;20644;-71
2024/04/12 00:33:19;;;;;;;5.53;2.60;;;;;;;8.83;100.00;102570.63;5342059;26;20239;-70
2024/04/12 00:35:49;;;;;;;5.73;2.63;;;;;;;8.80;100.00;102571.16;5342503;26;20325;-71
2024/04/12 00:38:17;;;;;;;8.37;2.57;;;;;;;8.78;100.00;102568.78;5342940;26;20753;-70
2024/04/12 00:40:45;;;;;;;9.50;2.90;;;;;;;8.76;100.00;102562.97;5343525;26;20293;-70
2024/04/12 00:43:18;;;;;;;3.07;2.70;;;;;;;8.72;100.00;102561.16;5343038;26;20906;-70
2024/04/12 00:45:48;;;;;;;4.87;2.40;;;;;;;8.70;100.00;102565.91;5342119;26;20244;-70
2024/04/12 00:48:17;;;;;;;4.63;2.50;;;;;;;8.69;100.00;102556.41;5342476;26;20229;-71
2024/04/12 00:50:46;;;;;;;3.53;2.60;;;;;;;8.66;100.00;102568.28;5350715;26;20230;-71
2024/04/12 00:53:22;;;;;;;3.20;2.40;;;;;;;8.64;100.00;102557.19;5344844;26;20794;-71
2024/04/12 00:55:59;;;;;;;3.37;2.50;;;;;;;8.63;100.00;102554.81;5352939;26;20263;-71
2024/04/12 00:58:32;;;;;;;3.23;2.50;;;;;;;8.60;100.00;102550.09;5345007;26;20242;-70
2024/04/12 01:01:10;;;;;;;4.27;2.50;;;;;;;8.57;100.00;102554.06;5343169;26;20280;-71
2024/04/12 01:03:45;;;;;;;3.77;2.60;;;;;;;8.56;100.00;102546.41;5341038;26;20272;-71
2024/04/12 01:06:15;;;;;;;2.40;2.20;;;;;;;8.54;100.00;102540.63;5337716;26;20250;-70
2024/04/12 01:08:43;;;;;;;5.27;2.30;;;;;;;8.52;100.00;102540.09;5347495;26;20239;-70
2024/04/12 01:11:09;;;;;;;4.93;2.50;;;;;;;8.48;100.00;102553.00;5347352;26;20231;-70
2024/04/12 01:13:38;;;;;;;3.43;2.57;;;;;;;8.47;100.00;102545.34;5343504;26;20763;-70
2024/04/12 01:16:07;;;;;;;4.47;2.50;;;;;;;8.45;100.00;102545.59;5348065;26;20322;-70
2024/04/12 01:18:35;;;;;;;4.67;2.47;;;;;;;8.42;100.00;102537.44;5342080;26;20241;-70
2024/04/12 01:21:10;;;;;;;4.17;2.67;;;;;;;8.41;100.00;102539.31;5342126;26;20235;-70
2024/04/12 01:23:40;;;;;;;3.60;2.70;;;;;;;8.39;100.00;102543.25;5347199;26;20283;-70
2024/04/12 01:26:09;;;;;;;4.70;2.80;;;;;;;8.37;100.00;102545.34;5343821;26;20243;-71
2024/04/12 01:28:38;;;;;;;4.60;2.33;;;;;;;8.34;100.00;102551.16;5344931;26;20587;-70
2024/04/12 01:31:05;;;;;;;3.73;2.17;;;;;;;8.32;100.00;102548.78;5333753;26;20275;-70
2024/04/12 01:33:33;;;;;;;4.67;2.40;;;;;;;8.30;100.00;102550.88;5347854;26;20231;-70
2024/04/12 01:36:04;;;;;;;5.20;2.47;;;;;;;8.29;100.00;102537.97;5345872;26;20243;-70
2024/04/12 01:38:37;;;;;;;4.87;2.70;;;;;;;8.26;100.00;102539.28;5347783;26;20235;-70
2024/04/12 01:41:08;;;;;;;6.13;2.50;;;;;;;8.23;100.00;102531.13;5381917;26;20275;-70
2024/04/12 01:43:38;;;;;;;3.37;2.13;;;;;;;8.22;100.00;102534.81;5344760;26;20317;-71
2024/04/12 01:46:07;;;;;;;2.83;2.43;;;;;;;8.19;100.00;102546.59;5342273;26;20995;-70
2024/04/12 01:48:33;;;;;;;4.50;2.60;;;;;;;8.15;100.00;102540.31;5349493;26;20622;-70
2024/04/12 01:51:04;;;;;;;2.80;2.47;;;;;;;8.13;100.00;102533.72;5326293;26;20344;-71
2024/04/12 01:53:36;;;;;;;4.33;2.70;;;;;;;8.11;100.00;102541.06;5342230;26;20228;-70
2024/04/12 01:56:09;;;;;;;4.90;2.67;;;;;;;8.09;100.00;102535.28;5332040;26;20492;-70
2024/04/12 01:58:37;;;;;;;2.60;2.03;;;;;;;8.07;100.00;102540.81;5351116;26;20239;-70
2024/04/12 02:01:06;;;;;;;11.17;2.57;;;;;;;8.04;100.00;102543.97;5341997;26;20289;-70
2024/04/12 02:03:31;;;;;;;3.57;2.40;;;;;;;8.01;100.00;102539.22;5341633;26;20780;-70
2024/04/12 02:06:03;;;;;;;3.37;2.30;;;;;;;7.99;100.00;102533.44;5340855;26;20269;-70
2024/04/12 02:08:32;;;;;;;6.43;2.40;;;;;;;7.99;100.00;102540.53;5341076;26;20242;-70
2024/04/12 02:11:05;;;;;;;4.17;2.50;;;;;;;7.97;100.00;102537.38;5350909;26;20231;-71
2024/04/12 02:13:35;;;;;;;4.80;2.40;;;;;;;7.94;100.00;102541.31;5344673;26;20274;-70
2024/04/12 02:16:10;;;;;;;3.77;2.20;;;;;;;7.92;100.00;102542.63;5352447;26;20251;-70
2024/04/12 02:18:38;;;;;;;6.33;2.40;;;;;;;7.90;100.00;102536.81;5318999;26;20257;-70
2024/04/12 02:21:07;;;;;;;4.37;2.80;;;;;;;7.87;100.00;102525.00;5345051;26;20274;-70
2024/04/12 02:23:37;;;;;;;4.93;2.07;;;;;;;7.86;100.00;102526.03;5350200;26;20231;-70
2024/04/12 02:26:08;;;;;;;3.03;2.37;;;;;;;7.83;100.00;102520.50;5354281;26;20609;-70
2024/04/12 02:28:36;;;;;;;3.90;2.50;;;;;;;7.83;100.00;102512.63;5346575;26;20280;-70
2024/04/12 02:31:08;;;;;;;3.70;2.50;;;;;;;7.79;100.00;102511.56;5344912;26;20239;-70
2024/04/12 02:33:35;;;;;;;4.40;2.73;;;;;;;7.78;100.00;102507.34;5325823;26;20270;-70
2024/04/12 02:36:11;;;;;;;3.83;2.30;;;;;;;7.78;100.00;102512.63;5344988;26;20278;-71
2024/04/12 02:38:40;;;;;;;3.43;2.30;;;;;;;7.76;100.00;102520.75;5348266;26;20789;-70
2024/04/12 02:41:13;;;;;;;5.73;2.33;;;;;;;7.75;100.00;102515.75;5343288;26;20284;-70
2024/04/12 02:43:40;;;;;;;4.53;2.57;;;;;;;7.74;100.00;102511.53;5336786;26;20305;-70
2024/04/12 02:46:12;;;;;;;5.20;2.40;;;;;;;7.74;100.00;102522.88;5346569;26;20588;-70
2024/04/12 02:48:40;;;;;;;5.83;2.70;;;;;;;7.72;100.00;102521.53;5341672;26;20227;-70
2024/04/12 02:51:12;;;;;;;3.10;2.53;;;;;;;7.72;100.00;102522.31;5342328;26;20230;-71
2024/04/12 02:53:38;;;;;;;6.17;2.60;;;;;;;7.72;100.00;102524.19;5361153;26;20243;-70
2024/04/12 02:56:09;;;;;;;4.67;2.37;;;;;;;7.70;100.00;102524.44;5347990;26;20243;-70
2024/04/12 02:58:38;;;;;;;5.43;2.77;;;;;;;7.70;100.00;102524.44;5359020;26;20233;-70
2024/04/12 03:01:07;;;;;;;3.10;2.63;;;;;;;7.71;100.00;102519.97;5344813;26;20290;-70
2024/04/12 03:03:36;;;;;;;3.67;2.53;;;;;;;7.70;100.00;102513.91;5349095;26;20231;-70
2024/04/12 03:06:09;;;;;;;3.70;2.57;;;;;;;7.72;100.00;102513.66;5323108;26;20250;-70
2024/04/12 03:08:36;;;;;;;4.27;2.70;;;;;;;7.71;100.00;102515.47;5344698;26;20235;-70
2024/04/12 03:11:21;;;;;;;5.40;2.67;;;;;;;7.69;100.00;102514.97;5347105;26;20649;-71
2024/04/12 03:13:50;;;;;;;3.80;2.80;;;;;;;7.69;100.00;102512.34;5345094;26;20931;-70
2024/04/12 03:16:19;;;;;;;4.03;2.33;;;;;;;7.70;100.00;102513.09;5354672;26;20298;-70
2024/04/12 03:18:51;;;;;;;2.73;2.30;;;;;;;7.69;100.00;102519.41;5316377;26;20273;-70
2024/04/12 03:21:20;;;;;;;5.67;2.70;;;;;;;7.68;100.00;102515.22;5340472;26;20278;-71
2024/04/12 03:23:47;;;;;;;4.33;2.87;;;;;;;7.68;100.00;102510.75;5345613;26;20718;-70
2024/04/12 03:26:15;;;;;;;5.27;2.50;;;;;;;7.69;100.00;102516.78;5347556;26;20640;-70
2024/04/12 03:28:45;;;;;;;2.87;2.53;;;;;;;7.67;100.00;102514.41;5348063;26;20236;-70
2024/04/12 03:31:13;;;;;;;4.23;2.67;;;;;;;7.68;100.00;102518.66;5335271;26;20289;-70
2024/04/12 03:33:42;;;;;;;3.77;2.80;;;;;;;7.67;100.00;102518.91;5344177;26;20273;-70
2024/04/12 03:41:40;;;;;;;4.60;2.43;;;;;;;7.67;100.00;102518.91;5344351;26;20226;-70
2024/04/12 03:44:08;;;;;;;3.57;2.40;;;;;;;7.67;100.00;102521.53;5346976;26;20242;-70
2024/04/12 03:46:40;;;;;;;3.50;2.57;;;;;;;7.67;100.00;102519.66;5345373;26;20288;-70
2024/04/12 03:49:09;;;;;;;4.07;2.40;;;;;;;7.67;100.00;102521.53;5344332;26;20285;-70
2024/04/12 03:51:44;;;;;;;5.40;2.60;;;;;;;7.66;100.00;102520.72;5344779;26;20242;-70
2024/04/12 03:54:11;;;;;;;4.63;2.60;;;;;;;7.65;100.00;102515.72;5345755;26;20336;-70
2024/04/12 03:56:40;;;;;;;3.70;2.63;;;;;;;7.65;100.00;102516.53;5347472;26;20785;-70
2024/04/12 03:59:05;;;;;;;4.17;2.80;;;;;;;7.65;100.00;102515.72;5343810;26;20675;-70
2024/04/12 04:01:33;;;;;;;6.20;3.20;;;;;;;7.62;100.00;102522.28;5343003;26;20344;-70
2024/04/12 04:04:10;;;;;;;4.73;2.70;;;;;;;7.61;100.00;102531.22;5343851;26;21040;-70
2024/04/12 04:06:38;;;;;;;6.73;2.57;;;;;;;7.60;100.00;102536.72;5347479;26;20657;-70
2024/04/12 04:09:06;;;;;;;3.73;2.83;;;;;;;7.60;100.00;102527.03;5352215;26;20403;-70
2024/04/12 04:11:42;;;;;;;5.27;3.10;;;;;;;7.60;100.00;102534.09;5353146;26;20235;-70
2024/04/12 04:14:09;;;;;;;4.83;3.20;;;;;;;7.60;100.00;102531.47;5355913;26;20230;-70
2024/04/12 04:16:38;;;;;;;5.90;2.93;;;;;;;7.59;100.00;102533.34;5342764;26;20289;-70
2024/04/12 04:19:04;;;;;;;3.37;3.07;;;;;;;7.59;100.00;102532.53;5343012;26;20582;-70
2024/04/12 04:21:33;;;;;;;5.93;2.80;;;;;;;7.60;100.00;102526.22;5350251;26;20313;-70
2024/04/12 04:24:08;;;;;;;4.97;2.90;;;;;;;7.62;100.00;102526.78;5348189;26;20234;-70
2024/04/12 04:26:37;;;;;;;5.13;3.17;;;;;;;7.63;100.00;102528.34;5320694;26;20328;-70
2024/04/12 04:29:02;;;;;;;6.87;3.70;;;;;;;7.64;100.00;102522.03;5356791;26;20733;-70
2024/04/12 04:31:45;;;;;;;4.03;3.00;;;;;;;7.67;100.00;102524.94;5352704;26;20401;-71
2024/04/12 04:34:12;;;;;;;5.23;3.70;;;;;;;7.71;100.00;102522.59;5371643;26;20324;-71
2024/04/12 04:36:40;;;;;;;7.20;4.43;;;;;;;7.74;100.00;102514.19;5343937;26;20713;-72
2024/04/12 04:39:14;;;;;;;7.77;4.00;;;;;;;7.80;100.00;102528.91;5354722;26;20232;-71
2024/04/12 04:41:44;;;;;;;4.43;3.37;;;;;;;7.89;100.00;102532.63;5347467;26;20718;-71
2024/04/12 04:44:09;;;;;;;6.77;3.87;;;;;;;7.96;100.00;102538.41;5377103;26;20293;-71
2024/04/12 04:46:37;;;;;;;9.43;4.20;;;;;;;8.02;100.00;102535.53;5359522;26;20904;-72
2024/04/12 04:49:04;;;;;;;6.97;3.50;;;;;;;8.12;100.00;102537.41;5345323;26;20244;-71
2024/04/12 04:51:33;;;;;;;9.03;4.10;;;;;;;8.21;100.00;102539.28;5335375;26;20958;-72
2024/04/12 04:53:59;;;;;;;5.27;3.50;;;;;;;8.31;100.00;102539.31;5343114;26;20235;-71
2024/04/12 04:56:32;;;;;;;4.77;3.40;;;;;;;8.43;100.00;102539.06;5345518;26;20634;-71
2024/04/12 04:58:57;;;;;;;9.93;4.23;;;;;;;8.53;100.00;102539.03;5342554;26;20571;-71
2024/04/12 05:01:26;;;;;;;6.30;3.70;;;;;;;8.63;100.00;102533.75;5343235;26;20276;-72
2024/04/12 05:03:52;;;;;;;10.00;4.00;;;;;;;8.72;100.00;102543.50;5345331;26;20241;-72
2024/04/12 05:06:24;;;;;;;5.60;4.20;;;;;;;8.82;100.00;102534.78;5344451;26;20301;-71
2024/04/12 05:08:52;;;;;;;5.63;3.83;;;;;;;8.93;100.00;102538.97;5353840;26;20272;-71
2024/04/12 05:11:20;;;;;;;6.13;3.63;;;;;;;9.02;100.00;102545.31;5347976;26;20243;-71
2024/04/12 05:13:55;;;;;;;9.87;4.27;;;;;;;9.11;100.00;102541.84;5340960;26;20251;-71
2024/04/12 05:16:21;;;;;;;5.77;3.23;;;;;;;9.20;100.00;102545.50;5344565;26;20242;-72
2024/04/12 05:18:53;;;;;;;4.17;3.27;;;;;;;9.29;100.00;102551.81;5339874;26;20803;-72
2024/04/12 05:21:20;;;;;;;5.17;3.57;;;;;;;9.40;100.00;102560.47;5332900;26;20230;-71
2024/04/12 05:23:51;;;;;;;8.03;3.63;;;;;;;9.50;100.00;102552.53;5357095;26;20744;-72
2024/04/12 05:26:17;;;;;;;6.73;3.20;;;;;;;9.60;100.00;102563.03;5331296;26;20286;-71
2024/04/12 05:28:45;;;;;;;5.50;3.70;;;;;;;9.68;100.00;102565.88;5351883;26;20243;-72
2024/04/12 05:31:13;;;;;;;5.50;3.50;;;;;;;9.77;100.00;102566.91;5338371;26;20257;-72
2024/04/12 05:33:43;;;;;;;7.27;3.57;;;;;;;9.87;100.00;102566.06;5351131;26;20245;-72
2024/04/12 05:36:09;;;;;;;7.10;3.27;;;;;;;9.95;100.00;102562.84;5351780;26;20282;-72
2024/04/12 05:38:38;;;;;;;4.60;3.40;;;;;;;10.04;100.00;102562.03;5345298;26;20279;-72
2024/04/12 05:41:04;;;;;;;8.10;3.53;;;;;;;10.12;100.00;102563.31;5356025;26;20289;-72
2024/04/12 05:43:33;;;;;;;5.37;3.43;;;;;;;10.19;100.00;102551.38;5340813;26;20251;-72
2024/04/12 05:46:00;;;;;;;5.60;3.93;;;;;;;10.29;100.00;102553.16;5342496;26;20287;-72
2024/04/12 05:48:31;;;;;;;5.90;3.30;;;;;;;10.35;100.00;102550.19;5341258;26;20354;-72
2024/04/12 05:50:58;;;;;;;6.90;3.53;;;;;;;10.43;100.00;102546.97;5340670;26;20855;-71
2024/04/12 05:53:29;;;;;;;6.47;3.30;;;;;;;10.52;100.00;102539.25;5342708;26;20236;-72
2024/04/12 05:58:40;;;;;;;5.13;2.70;;;;;;;10.70;100.00;102528.78;5344916;26;20249;-71
2024/04/12 06:01:08;;;;;;;5.67;3.33;;;;;;;10.79;100.00;102537.69;5347274;26;20763;-73
2024/04/12 06:03:42;;;;;;;5.87;3.07;;;;;;;10.87;100.00;102538.94;5343730;26;20242;-73
2024/04/12 06:06:12;;;;;;;7.23;3.20;;;;;;;10.95;100.00;102544.38;5349787;26;20272;-73
2024/04/12 06:08:37;;;;;;;4.83;3.43;;;;;;;11.02;100.00;102541.41;5349713;26;20297;-71
2024/04/12 06:11:08;;;;;;;5.80;3.10;;;;;;;11.08;100.00;102549.00;5345638;26;20242;-73
2024/04/12 06:13:34;;;;;;;6.60;3.20;;;;;;;11.15;100.00;102554.75;5345941;26;20239;-73
2024/04/12 06:16:02;;;;;;;5.03;2.80;;;;;;;11.21;100.00;102548.34;5342869;26;20572;-73
2024/04/12 06:18:28;;;;;;;5.13;2.80;;;;;;;11.28;100.00;102545.38;5345510;26;20332;-73
2024/04/12 06:21:01;;;;;;;7.27;3.20;;;;;;;11.33;100.00;102543.44;5346416;26;20329;-72
2024/04/12 06:23:26;;;;;;;6.07;2.70;;;;;;;11.40;100.00;102546.53;5346445;26;20227;-72
2024/04/12 06:25:58;;;;;;;7.57;3.00;;;;;;;11.48;100.00;102550.38;5352165;26;20350;-72
2024/04/12 06:28:27;;;;;;;5.77;3.17;;;;;;;11.57;100.00;102552.13;5348923;26;20234;-72
2024/04/12 06:30:59;;;;;;;5.20;2.80;;;;;;;11.68;100.00;102550.97;5342131;26;20320;-72
2024/04/12 06:33:24;;;;;;;5.10;2.60;;;;;;;11.79;100.00;102541.81;5339734;26;20227;-72
2024/04/12 06:36:04;;;;;;;3.43;2.37;;;;;;;11.91;100.00;102539.53;5342566;26;20280;-72
2024/04/12 06:38:32;;;;;;;4.50;2.77;;;;;;;12.02;100.00;102533.03;5340090;26;20336;-72
2024/04/12 06:41:02;;;;;;;6.33;2.60;;;;;;;12.12;100.00;102532.84;5344399;26;20223;-72
2024/04/12 06:43:28;;;;;;;3.60;2.60;;;;;;;12.21;100.00;102522.41;5338238;26;20346;-72
2024/04/12 06:46:00;;;;;;;4.77;2.70;;;;;;;12.33;100.00;102533.34;5377682;26;20246;-72
2024/04/12 06:48:26;;;;;;;4.23;2.50;;;;;;;12.45;100.00;102528.34;5355975;26;20285;-72
2024/04/12 06:50:55;;;;;;;4.97;2.80;;;;;;;12.58;100.00;102520.44;5345370;26;20233;-72
2024/04/12 06:53:21;;;;;;;4.50;2.40;;;;;;;12.71;100.00;102524.19;5348509;26;20306;-72
2024/04/12 06:55:55;;;;;;;5.03;2.63;;;;;;;12.82;100.00;102518.44;5342029;26;20252;-72
2024/04/12 06:58:21;;;;;;;4.87;2.50;;;;;;;12.95;100.00;102528.25;5345500;26;20262;-72
2024/04/12 07:00:55;;;;;;;3.67;2.27;;;;;;;13.11;100.00;102532.25;5343499;26;20287;-72
2024/04/12 07:03:22;;;;;;;4.87;2.40;;;;;;;13.26;100.00;102531.91;5342224;26;20713;-72
2024/04/12 07:05:53;;;;;;;3.90;2.30;;;;;;;13.43;100.00;102529.47;5342944;26;20243;-72
2024/04/12 07:08:18;;;;;;;4.03;2.70;;;;;;;13.58;100.00;102537.09;5342818;26;20913;-72
2024/04/12 07:10:48;;;;;;;7.10;2.40;;;;;;;13.74;100.00;102542.88;5342216;26;20253;-72
2024/04/12 07:13:21;;;;;;;4.47;2.60;;;;;;;13.91;100.00;102546.47;5370249;26;20242;-72
2024/04/12 07:15:49;;;;;;;3.67;2.67;;;;;;;14.03;100.00;102546.72;5346255;26;20648;-72
2024/04/12 07:18:15;;;;;;;6.30;2.40;;;;;;;14.15;100.00;102549.63;5338688;26;20665;-72
2024/04/12 07:20:48;;;;;;;5.47;2.50;;;;;;;14.26;100.00;102545.69;5336860;26;20236;-72
2024/04/12 07:23:15;;;;;;;7.43;2.13;;;;;;;14.41;100.00;102547.19;5362904;26;20240;-72
2024/04/12 07:25:45;;;;;;;4.77;2.40;;;;;;;14.53;100.00;102544.75;5341271;26;20285;-72
2024/04/12 07:28:13;;;;;;;5.93;2.23;;;;;;;14.66;100.00;102546.56;5338430;26;20297;-72
2024/04/12 07:30:44;;;;;;;3.87;2.37;;;;;;;14.78;100.00;102555.53;5345586;26;20250;-72
2024/04/12 07:33:12;;;;;;;5.63;2.30;;;;;;;14.86;100.00;102549.47;5339724;26;20755;-72
2024/04/12 07:35:43;;;;;;;4.77;2.60;;;;;;;14.96;100.00;102551.84;5340985;26;20227;-72
2024/04/12 07:38:09;;;;;;;3.00;2.17;;;;;;;15.03;100.00;102552.22;5345889;26;20307;-72
2024/04/12 07:40:40;;;;;;;4.70;2.50;;;;;;;15.10;100.00;102554.41;5341934;26;20623;-72
2024/04/12 07:43:08;;;;;;;3.30;2.20;;;;;;;15.16;100.00;102547.88;5339829;26;21779;-72
2024/04/12 07:45:37;;;;;;;4.87;2.30;;;;;;;15.24;100.00;102541.78;5331165;26;20240;-72
2024/04/12 07:48:23;;;;;;;5.73;2.10;;;;;;;15.33;100.00;102550.63;5339352;26;20250;-72
2024/04/12 07:50:54;;;;;;;2.30;2.03;;;;;;;15.43;100.00;102553.00;5343113;26;20273;-72
2024/04/12 07:53:21;;;;;;;3.20;1.93;;;;;;;15.50;100.00;102564.75;5337230;26;20846;-72
2024/04/12 07:55:58;;;;;;;5.07;2.27;;;;;;;15.58;100.00;102569.28;5338535;26;20787;-71
2024/04/12 07:58:26;;;;;;;6.20;2.20;;;;;;;15.65;100.00;102569.66;5348490;26;20246;-72
2024/04/12 08:01:09;;;;;;;3.67;2.30;;;;;;;15.71;100.00;102567.59;5341893;26;20340;-72
2024/04/12 08:03:37;;;;;;;3.47;2.13;;;;;;;15.75;100.00;102566.69;5346037;26;20312;-72
2024/04/12 08:06:06;;;;;;;2.93;2.10;;;;;;;15.77;100.00;102561.81;5342655;26;20290;-72
2024/04/12 08:08:43;;;;;;;3.37;2.43;;;;;;;15.79;100.00;102564.19;5335270;26;20293;-71
2024/04/12 08:11:31;;;;;;;3.60;1.80;;;;;;;15.82;100.00;102560.88;5341849;26;20777;-72
2024/04/12 08:14:05;;;;;;;5.10;2.17;;;;;;;15.83;100.00;102565.13;5339667;26;20714;-72
2024/04/12 08:16:38;;;;;;;3.57;2.27;;;;;;;15.87;100.00;102560.72;5340148;26;20759;-72
2024/04/12 08:19:12;;;;;;;2.97;1.80;;;;;;;15.91;100.00;102559.81;5344521;26;20286;-73
2024/04/12 08:21:43;;;;;;;4.10;2.10;;;;;;;15.97;100.00;102555.88;5337994;26;20234;-72
2024/04/12 08:24:10;;;;;;;4.83;2.00;;;;;;;16.02;100.00;102553.06;5338644;26;20368;-72
2024/04/12 08:26:45;;;;;;;5.07;1.87;;;;;;;16.08;100.00;102549.13;5351183;26;20249;-72
2024/04/12 08:29:20;;;;;;;3.17;1.87;;;;;;;16.12;100.00;102546.63;5338721;26;20238;-72
2024/04/12 08:31:48;;;;;;;5.60;2.20;;;;;;;16.18;100.00;102548.03;5339666;26;21199;-73
2024/04/12 08:34:20;;;;;;;2.67;1.73;;;;;;;16.24;100.00;102542.22;5341143;26;20625;-72
2024/04/12 08:36:49;;;;;;;6.17;2.13;;;;;;;16.30;100.00;102540.19;5344764;26;20242;-71
2024/04/12 08:39:29;;;;;;;3.43;1.80;;;;;;;16.36;100.00;102542.34;5345001;26;20327;-72
2024/04/12 08:41:59;;;;;;;5.30;1.90;;;;;;;16.45;100.00;102547.72;5338601;26;20718;-72
2024/04/12 08:44:29;;;;;;;3.73;2.47;;;;;;;16.51;100.00;102541.88;5347539;26;20258;-73
2024/04/12 08:46:59;;;;;;;4.40;1.73;;;;;;;16.59;100.00;102548.28;5333289;26;20247;-72
2024/04/12 08:49:32;;;;;;;6.17;2.20;;;;;;;16.65;100.00;102545.16;5340417;26;20246;-72
2024/04/12 08:52:16;;;;;;;3.17;2.33;;;;;;;16.73;100.00;102544.34;5347393;26;20235;-72
2024/04/12 08:54:45;;;;;;;5.33;2.00;;;;;;;16.82;100.00;102539.75;5342809;26;20234;-72
2024/04/12 08:57:13;;;;;;;4.10;2.00;;;;;;;16.92;100.00;102534.06;5338247;26;20828;-71
2024/04/12 08:59:46;;;;;;;3.60;1.80;;;;;;;17.00;100.00;102535.13;5336502;26;20295;-71
2024/04/12 09:02:13;;;;;;;6.83;1.97;;;;;;;17.09;100.00;102533.19;5334862;26;20243;-70
2024/04/12 09:04:46;;;;;;;4.43;2.30;;;;;;;17.18;100.00;102542.72;5339571;26;20280;-71
2024/04/12 09:07:14;;;;;;;3.17;1.73;;;;;;;17.21;100.00;102527.94;5333894;26;20243;-71
2024/04/12 09:09:45;;;;;;;4.10;1.90;;;;;;;17.30;100.00;102528.69;5334506;26;20348;-71
2024/04/12 09:12:12;;;;;;;4.67;1.90;;;;;;;17.36;100.00;102522.84;5318260;26;20270;-71
2024/04/12 09:14:41;;;;;;;3.67;1.63;;;;;;;17.44;100.00;102519.34;5336677;26;20348;-71
2024/04/12 09:17:14;;;;;;;6.17;1.77;;;;;;;17.53;100.00;102513.94;5337918;26;20281;-71
2024/04/12 09:19:45;;;;;;;3.07;1.77;;;;;;;17.62;100.00;102518.16;5334723;26;20250;-71
2024/04/12 09:22:14;;;;;;;5.47;2.23;;;;;;;17.69;100.00;102515.72;5340425;26;20293;-71
2024/04/12 09:24:42;;;;;;;3.53;1.77;;;;;;;17.76;100.00;102510.66;5336678;26;20247;-71
2024/04/12 09:27:09;;;;;;;5.83;1.97;;;;;;;17.86;100.00;102510.22;5340576;26;20239;-71
2024/04/12 09:29:43;;;;;;;4.50;1.80;;;;;;;17.92;100.00;102500.94;5347742;26;21153;-71
2024/04/12 09:35:02;;;;;;;4.77;1.30;;;;;;;18.08;100.00;102485.03;5344431;26;20254;-71
2024/04/12 09:37:29;;;;;;;3.70;1.43;;;;;;;18.17;100.00;102485.75;5338910;26;20363;-71
2024/04/12 09:40:16;;;;;;;5.60;1.60;;;;;;;18.25;100.00;102484.84;5341618;26;20231;-72
2024/04/12 09:43:28;;;;;;;4.67;1.67;;;;;;;18.34;98.54;102477.56;5347758;26;20290;-71
2024/04/12 09:45:49;;;;;;;3.20;1.30;;;;;;;18.40;98.81;102479.69;5339224;26;20242;-71
2024/04/12 10:38:19;;;;;;;5.40;1.20;;;;;;;19.73;71.38;102402.63;5344329;26;20247;-71
2024/04/12 10:40:50;;;;;;;1.90;1.23;;;;;;;19.82;68.17;102404.03;5343669;26;20289;-71
2024/04/12 10:43:19;;;;;;;4.83;1.37;;;;;;;19.95;72.38;102400.16;5336296;26;21423;-71
2024/04/12 10:45:48;;;;;;;3.93;1.50;;;;;;;20.01;63.87;102395.31;5340059;26;20285;-71
2024/04/12 10:48:20;;;;;;;2.27;1.30;;;;;;;20.08;61.41;102396.31;5337097;26;20234;-71
2024/04/12 10:50:48;;;;;;;4.50;1.50;;;;;;;20.17;63.00;102396.16;5343627;26;20318;-71
2024/04/12 10:53:17;;;;;;;4.03;1.60;;;;;;;20.25;69.54;102392.50;5337489;26;20250;-71
2024/04/12 10:55:44;;;;;;;2.00;1.40;;;;;;;20.30;62.16;102389.56;5335246;26;20239;-71
2024/04/12 10:58:15;;;;;;;3.30;1.37;;;;;;;20.35;57.31;102375.88;5338677;26;20592;-71
2024/04/12 11:00:47;;;;;;;6.60;1.70;;;;;;;20.40;62.58;102375.63;5337790;26;20235;-71
2024/04/12 11:03:17;;;;;;;5.53;1.60;;;;;;;20.42;59.84;102376.03;5345615;26;20235;-71
2024/04/12 11:05:46;;;;;;;3.47;1.17;;;;;;;20.42;54.17;102366.09;5337107;26;20255;-71
2024/04/12 11:08:14;;;;;;;4.30;1.43;;;;;;;20.50;57.86;102351.69;5336334;26;20250;-71
2024/04/12 11:10:40;;;;;;;4.73;1.37;;;;;;;20.56;70.73;102361.06;5339763;26;20234;-71
2024/04/12 11:13:16;;;;;;;3.40;1.23;;;;;;;20.60;56.78;102350.41;5337875;26;20241;-71
2024/04/12 11:32:18;;;;;;;2.20;1.20;;;;;;;20.87;55.23;102344.88;5334279;26;20246;-71
2024/04/12 11:34:46;;;;;;;2.13;1.07;;;;;;;20.92;58.40;102341.94;5332247;26;20605;-71
2024/04/12 11:37:15;;;;;;;4.03;1.38;;;;;;;20.97;54.70;102338.19;5338834;26;20359;-71
2024/04/12 11:39:41;;;;;;;3.42;1.17;;;;;;;21.04;52.93;102333.72;5334690;26;21007;-71
2024/04/12 11:42:11;;;;;;;2.20;1.17;;;;;;;21.15;64.71;102333.94;5333284;26;20725;-71
2024/04/12 11:44:37;;;;;;;4.37;1.50;;;;;;;21.20;51.35;102326.38;5336093;26;20243;-71
2024/04/12 11:47:06;;;;;;;2.80;1.25;;;;;;;21.30;61.63;102325.81;5334283;26;20247;-71
2024/04/12 11:49:41;;;;;;;4.90;2.00;;;;;;;21.40;53.95;102317.16;5335070;26;20288;-71
2024/04/12 11:52:15;;;;;;;3.00;1.08;;;;;;;21.51;57.40;102311.97;5326553;26;20343;-72
2024/04/12 11:54:41;;;;;;;5.38;1.33;;;;;;;21.58;55.25;102314.78;5337487;26;20250;-71
2024/04/12 11:57:11;;;;;;;2.63;1.13;;;;;;;21.62;51.08;102300.25;5336738;26;20905;-71
2024/04/12 11:59:37;;;;;;;3.10;1.30;;;;;;;21.69;56.38;102300.41;5334604;26;20246;-71
2024/04/12 12:02:08;;;;;;;2.28;1.20;;;;;;;21.66;54.17;102314.56;5331671;26;20242;-71
2024/04/12 12:04:36;;;;;;;4.70;1.25;;;;;;;21.72;64.87;102299.69;5335752;26;20304;-71
2024/04/12 12:07:05;;;;;;;2.63;1.00;;;;;;;21.75;54.83;102292.84;5335028;26;20281;-72
2024/04/12 12:09:31;;;;;;;2.85;1.25;;;;;;;21.77;55.19;102280.56;5334035;26;20243;-71
2024/04/12 12:12:00;;;;;;;5.35;1.58;;;;;;;21.79;51.29;102278.28;5332777;26;20238;-71
2024/04/12 12:14:26;;;;;;;4.38;1.40;;;;;;;21.83;53.05;102281.06;5333638;26;20599;-71
2024/04/12 12:16:57;;;;;;;2.15;0.95;;;;;;;21.91;55.79;102271.94;5312138;26;20289;-71
2024/04/12 12:19:23;;;;;;;4.78;1.80;;;;;;;21.97;53.50;102276.66;5337107;26;20337;-71
2024/04/12 12:21:54;;;;;;;5.60;1.55;;;;;;;22.00;57.15;102277.88;5339984;26;20279;-71
2024/04/12 12:24:19;;;;;;;3.08;1.50;;;;;;;22.02;51.20;102273.69;5333412;26;20833;-71
2024/04/12 12:26:49;;;;;;;4.10;1.17;;;;;;;22.05;51.39;102272.19;5332197;26;20362;-71
2024/04/12 12:29:16;;;;;;;2.47;1.30;;;;;;;22.06;53.53;102276.41;5333810;26;20240;-72
2024/04/12 12:31:44;;;;;;;3.33;1.15;;;;;;;22.03;58.55;102274.44;5332659;26;20242;-71
2024/04/12 12:34:09;;;;;;;2.38;1.33;;;;;;;21.99;55.50;102273.63;5333951;26;20281;-71
2024/04/12 12:36:37;;;;;;;4.30;1.35;;;;;;;22.00;57.54;102278.63;5340540;26;21006;-71
2024/04/12 12:39:06;;;;;;;4.05;1.63;;;;;;;21.96;55.41;102268.97;5335835;26;20306;-71
2024/04/12 12:41:35;;;;;;;2.88;1.20;;;;;;;21.91;52.08;102267.38;5333641;26;20242;-71
2024/04/12 12:44:05;;;;;;;2.88;1.30;;;;;;;21.89;51.27;102266.94;5337537;26;20243;-71
2024/04/12 12:46:34;;;;;;;3.53;1.35;;;;;;;21.87;54.29;102269.22;5335074;26;20302;-72
2024/04/12 12:49:01;;;;;;;4.25;1.50;;;;;;;21.86;52.78;102270.34;5331752;26;20250;-71
2024/04/12 12:51:29;;;;;;;4.68;1.42;;;;;;;21.88;52.79;102262.69;5363248;26;20277;-71